createdAt,value
2018-08-19T00:02:21.225Z,51.80
2018-08-19T00:05:05.455Z,52.00
2018-08-19T00:07:34.719Z,53.30
2018-08-19T00:10:05.216Z,52.00
2018-08-19T00:12:38.845Z,52.30
2018-08-19T00:15:08.084Z,52.60
2018-08-19T00:17:37.359Z,52.30
2018-08-19T00:20:08.862Z,51.80
2018-08-19T00:22:38.303Z,51.10
2018-08-19T00:25:07.690Z,50.90
2018-08-19T00:27:38.227Z,52.40
2018-08-19T00:30:08.871Z,54.30
2018-08-19T00:32:38.291Z,54.20
2018-08-19T00:35:07.846Z,54.50
2018-08-19T00:37:37.043Z,54.30
2018-08-19T00:40:10.747Z,54.00
2018-08-19T00:42:42.258Z,55.00
2018-08-19T00:45:11.535Z,53.80
2018-08-19T00:47:40.719Z,53.40
2018-08-19T00:50:09.931Z,55.10
2018-08-19T00:52:39.670Z,53.50
2018-08-19T00:55:08.846Z,53.60
2018-08-19T00:57:40.807Z,52.40
2018-08-19T01:00:10.039Z,53.50
2018-08-19T01:02:39.239Z,53.30
2018-08-19T01:05:08.491Z,55.00
2018-08-19T01:07:37.735Z,53.20
2018-08-19T01:10:06.993Z,51.70
2018-08-19T01:12:36.563Z,51.70
2018-08-19T01:15:08.610Z,51.70
2018-08-19T01:17:40.980Z,52.70
2018-08-19T01:20:11.848Z,53.10
2018-08-19T01:22:42.441Z,51.90
2018-08-19T01:25:13.750Z,52.40
2018-08-19T01:27:43.409Z,54.50
2018-08-19T01:30:14.983Z,52.50
2018-08-19T01:32:44.591Z,52.40
2018-08-19T01:35:15.279Z,51.70
2018-08-19T01:37:44.563Z,51.90
2018-08-19T01:40:17.467Z,51.50
2018-08-19T01:42:47.692Z,52.70
2018-08-19T01:45:16.937Z,52.20
2018-08-19T01:47:46.475Z,53.20
2018-08-19T01:50:17.135Z,54.70
2018-08-19T01:52:48.924Z,53.80
2018-08-19T01:55:19.883Z,52.80
2018-08-19T01:57:50.276Z,52.10
2018-08-19T02:00:19.756Z,53.90
2018-08-19T02:02:59.668Z,54.70
2018-08-19T02:05:28.895Z,54.40
2018-08-19T02:07:59.820Z,53.20
2018-08-19T02:10:29.905Z,54.10
2018-08-19T02:12:59.580Z,55.00
2018-08-19T02:15:29.892Z,54.40
2018-08-19T02:18:05.677Z,53.90
2018-08-19T02:20:39.042Z,53.80
2018-08-19T02:23:09.911Z,55.40
2018-08-19T02:25:45.507Z,55.90
2018-08-19T02:28:19.151Z,54.70
2018-08-19T02:30:53.848Z,55.30
2018-08-19T02:33:24.214Z,57.00
2018-08-19T02:36:00.766Z,56.50
2018-08-19T02:38:30.007Z,56.00
2018-08-19T02:40:59.233Z,55.60
2018-08-19T02:43:30.044Z,54.80
2018-08-19T02:45:59.271Z,54.60
2018-08-19T02:48:42.683Z,55.30
2018-08-19T02:51:14.887Z,55.50
2018-08-19T02:53:46.135Z,57.10
2018-08-19T02:56:16.067Z,56.20
2018-08-19T02:58:46.310Z,56.10
2018-08-19T03:01:16.580Z,56.50
2018-08-19T03:03:45.787Z,58.30
2018-08-19T03:06:15.028Z,59.10
2018-08-19T03:08:49.699Z,58.80
2018-08-19T03:11:20.751Z,58.30
2018-08-19T03:13:49.951Z,58.60
2018-08-19T03:16:19.280Z,57.60
2018-08-19T03:18:50.620Z,58.10
2018-08-19T03:21:20.546Z,57.00
2018-08-19T03:23:50.666Z,56.50
2018-08-19T03:26:19.875Z,56.90
2018-08-19T03:28:49.381Z,57.10
2018-08-19T03:31:18.769Z,58.20
2018-08-19T03:33:47.959Z,58.70
2018-08-19T03:36:17.161Z,56.20
2018-08-19T03:38:46.334Z,57.10
2018-08-19T03:41:15.664Z,57.00
2018-08-19T03:43:51.642Z,57.60
2018-08-19T03:46:21.324Z,59.60
2018-08-19T03:48:50.932Z,60.10
2018-08-19T03:51:20.133Z,58.90
2018-08-19T03:53:49.511Z,58.30
2018-08-19T03:56:24.112Z,59.80
2018-08-19T03:58:57.347Z,61.20
2018-08-19T04:01:41.755Z,58.00
2018-08-19T04:04:12.380Z,57.70
2018-08-19T04:06:41.643Z,59.10
2018-08-19T04:09:10.843Z,60.50
2018-08-19T04:11:40.041Z,59.90
2018-08-19T04:14:25.564Z,58.20
2018-08-19T04:16:56.227Z,59.70
2018-08-19T04:19:26.689Z,59.00
2018-08-19T04:21:59.204Z,60.00
2018-08-19T04:24:29.075Z,59.30
2018-08-19T04:26:58.557Z,59.20
2018-08-19T04:29:28.491Z,59.30
2018-08-19T04:31:57.720Z,59.70
2018-08-19T04:34:26.879Z,61.30
2018-08-19T04:36:56.350Z,59.50
2018-08-19T04:39:25.707Z,60.70
2018-08-19T04:41:55.073Z,59.70
2018-08-19T04:44:25.054Z,59.60
2018-08-19T04:46:54.267Z,59.00
2018-08-19T04:49:23.455Z,59.00
2018-08-19T04:51:52.633Z,59.20
2018-08-19T04:54:21.919Z,60.50
2018-08-19T04:56:51.148Z,61.40
2018-08-19T04:59:20.334Z,60.20
2018-08-19T05:01:50.051Z,60.20
2018-08-19T05:04:19.219Z,62.90
2018-08-19T05:06:48.426Z,63.60
2018-08-19T05:09:17.699Z,60.70
2018-08-19T05:11:46.871Z,62.80
2018-08-19T05:14:16.050Z,62.60
2018-08-19T05:16:45.268Z,59.70
2018-08-19T05:19:15.236Z,58.70
2018-08-19T05:21:44.419Z,59.40
2018-08-19T05:24:14.044Z,60.10
2018-08-19T05:26:43.347Z,60.50
2018-08-19T05:29:13.127Z,59.40
2018-08-19T05:31:58.571Z,59.10
2018-08-19T05:34:33.974Z,58.90
2018-08-19T05:37:03.659Z,58.80
2018-08-19T05:39:32.959Z,60.90
2018-08-19T05:42:08.721Z,60.30
2018-08-19T05:44:39.249Z,59.40
2018-08-19T05:47:11.951Z,59.90
2018-08-19T05:49:42.456Z,58.40
2018-08-19T05:52:19.207Z,58.70
2018-08-19T05:55:02.877Z,58.20
2018-08-19T05:57:33.696Z,58.60
2018-08-19T06:00:08.175Z,58.30
2018-08-19T06:02:42.369Z,58.00
2018-08-19T06:05:11.566Z,58.20
2018-08-19T06:07:40.812Z,58.70
2018-08-19T06:10:11.180Z,58.50
2018-08-19T06:12:40.960Z,58.70
2018-08-19T06:15:10.183Z,58.70
2018-08-19T06:17:40.756Z,58.10
2018-08-19T06:20:10.064Z,58.60
2018-08-19T06:22:41.134Z,58.20
2018-08-19T06:25:11.785Z,58.30
2018-08-19T06:27:45.092Z,58.30
2018-08-19T06:30:15.199Z,59.10
2018-08-19T06:32:44.481Z,59.00
2018-08-19T06:35:14.157Z,58.40
2018-08-19T06:37:43.370Z,57.50
2018-08-19T06:40:14.984Z,57.00
2018-08-19T06:42:44.446Z,58.00
2018-08-19T06:45:14.575Z,57.90
2018-08-19T06:47:43.872Z,58.00
2018-08-19T06:50:27.073Z,58.20
2018-08-19T06:52:56.955Z,58.90
2018-08-19T06:55:26.419Z,57.50
2018-08-19T06:57:57.548Z,56.60
2018-08-19T07:00:31.018Z,57.10
2018-08-19T07:03:01.628Z,56.80
2018-08-19T07:05:31.324Z,56.20
2018-08-19T07:08:01.049Z,57.50
2018-08-19T07:10:37.070Z,56.50
2018-08-19T07:13:08.776Z,56.10
2018-08-19T07:15:39.310Z,54.90
2018-08-19T07:18:10.533Z,54.90
2018-08-19T07:20:40.831Z,56.30
2018-08-19T07:23:10.579Z,55.40
2018-08-19T07:25:43.587Z,55.20
2018-08-19T07:28:13.902Z,55.00
2018-08-19T07:30:43.567Z,54.00
2018-08-19T07:33:13.303Z,54.00
2018-08-19T07:35:42.507Z,54.30
2018-08-19T07:38:11.731Z,54.50
2018-08-19T07:40:40.933Z,54.10
2018-08-19T07:43:10.112Z,54.30
2018-08-19T07:45:39.987Z,54.10
2018-08-19T07:48:09.823Z,54.30
2018-08-19T07:50:39.008Z,54.30
2018-08-19T07:53:08.180Z,53.80
2018-08-19T07:55:37.495Z,53.20
2018-08-19T07:58:06.736Z,53.90
2018-08-19T08:00:38.887Z,52.80
2018-08-19T08:03:08.228Z,52.20
2018-08-19T08:05:43.531Z,51.80
2018-08-19T08:08:12.750Z,52.30
2018-08-19T08:10:42.215Z,51.50
2018-08-19T08:13:12.563Z,51.70
2018-08-19T08:15:59.231Z,51.70
2018-08-19T08:18:28.456Z,51.30
2018-08-19T08:21:02.857Z,51.00
2018-08-19T08:23:32.339Z,50.50
2018-08-19T08:26:01.531Z,50.40
2018-08-19T08:28:30.727Z,49.50
2018-08-19T08:30:59.944Z,49.90
2018-08-19T08:33:29.407Z,49.30
2018-08-19T08:35:58.893Z,50.20
2018-08-19T08:38:28.104Z,50.30
2018-08-19T08:40:57.484Z,48.80
2018-08-19T08:43:26.655Z,48.20
2018-08-19T08:45:57.475Z,47.00
2018-08-19T08:48:27.108Z,47.80
2018-08-19T08:50:56.717Z,48.60
2018-08-19T08:53:27.820Z,48.30
2018-08-19T08:55:57.051Z,48.40
2018-08-19T08:58:26.306Z,47.20
2018-08-19T09:00:55.552Z,46.60
2018-08-19T09:03:24.891Z,47.60
2018-08-19T09:05:54.138Z,46.70
2018-08-19T09:08:23.699Z,45.80
2018-08-19T09:10:53.070Z,47.30
2018-08-19T09:13:22.422Z,47.10
2018-08-19T09:15:51.667Z,46.20
2018-08-19T09:18:20.883Z,44.30
2018-08-19T09:20:50.289Z,45.30
2018-08-19T09:23:19.725Z,44.40
2018-08-19T09:25:51.007Z,44.80
2018-08-19T09:28:20.563Z,44.00
2018-08-19T09:30:49.760Z,44.50
2018-08-19T09:33:18.941Z,43.60
2018-08-19T09:35:48.150Z,42.00
2018-08-19T09:38:19.740Z,39.10
2018-08-19T09:40:49.406Z,40.60
2018-08-19T09:43:18.893Z,41.40
2018-08-19T09:45:48.612Z,42.10
2018-08-19T09:48:18.963Z,42.40
2018-08-19T09:50:48.187Z,41.80
2018-08-19T09:53:17.419Z,39.80
2018-08-19T09:55:52.864Z,40.30
2018-08-19T09:58:22.747Z,40.10
2018-08-19T10:00:57.134Z,40.50
2018-08-19T10:03:26.547Z,41.90
2018-08-19T10:05:55.748Z,41.40
2018-08-19T10:08:25.350Z,41.30
2018-08-19T10:10:54.526Z,40.10
2018-08-19T10:13:23.750Z,39.10
2018-08-19T10:15:52.971Z,39.50
2018-08-19T10:18:22.358Z,40.40
2018-08-19T10:20:51.523Z,39.20
2018-08-19T10:23:24.388Z,38.70
2018-08-19T10:25:53.911Z,38.60
2018-08-19T10:28:23.099Z,39.00
2018-08-19T10:30:58.269Z,39.00
2018-08-19T10:33:27.643Z,38.40
2018-08-19T10:36:00.031Z,38.30
2018-08-19T10:38:29.320Z,38.20
2018-08-19T10:41:03.727Z,37.90
2018-08-19T10:43:32.992Z,38.00
2018-08-19T10:46:02.180Z,38.10
2018-08-19T10:48:32.148Z,37.60
2018-08-19T10:51:02.619Z,38.50
2018-08-19T10:53:31.806Z,39.20
2018-08-19T10:56:02.340Z,37.80
2018-08-19T10:58:31.682Z,35.10
2018-08-19T11:01:00.806Z,33.90
2018-08-19T11:03:31.035Z,34.70
2018-08-19T11:06:00.262Z,32.30
2018-08-19T11:08:29.576Z,31.50
2018-08-19T11:11:00.273Z,31.30
2018-08-19T11:13:29.496Z,32.80
2018-08-19T11:15:59.075Z,31.20
2018-08-19T11:18:41.855Z,29.80
2018-08-19T11:21:13.223Z,29.70
2018-08-19T11:23:44.557Z,27.40
2018-08-19T11:26:14.087Z,27.50
2018-08-19T11:28:46.028Z,26.90
2018-08-19T11:31:21.646Z,27.60
2018-08-19T11:33:52.679Z,27.20
2018-08-19T11:36:35.015Z,27.20
2018-08-19T11:39:11.584Z,27.40
2018-08-19T11:41:40.774Z,27.40
2018-08-19T11:44:13.179Z,26.30
2018-08-19T11:46:42.435Z,26.70
2018-08-19T11:49:16.564Z,26.40
2018-08-19T11:51:56.606Z,26.60
2018-08-19T11:54:26.607Z,25.30
2018-08-19T11:57:06.569Z,25.30
2018-08-19T11:59:41.368Z,25.90
2018-08-19T12:02:21.098Z,25.60
2018-08-19T12:04:50.360Z,26.80
2018-08-19T12:07:20.023Z,25.10
2018-08-19T12:09:54.727Z,24.30
2018-08-19T12:12:40.576Z,25.00
2018-08-19T12:15:10.784Z,25.20
2018-08-19T12:17:39.980Z,26.30
2018-08-19T12:20:09.650Z,26.80
2018-08-19T12:22:40.494Z,24.90
2018-08-19T12:25:09.676Z,22.50
2018-08-19T12:27:39.064Z,24.30
2018-08-19T12:30:15.572Z,24.40
2018-08-19T12:32:44.844Z,23.30
2018-08-19T12:35:16.482Z,23.80
2018-08-19T12:37:45.691Z,23.80
2018-08-19T12:40:14.916Z,24.00
2018-08-19T12:42:49.504Z,24.70
2018-08-19T12:45:19.034Z,22.70
2018-08-19T12:47:48.255Z,22.30
2018-08-19T12:50:17.931Z,23.00
2018-08-19T12:52:47.408Z,23.10
2018-08-19T12:55:16.936Z,22.00
2018-08-19T12:57:49.861Z,22.00
2018-08-19T13:00:26.222Z,22.60
2018-08-19T13:02:55.700Z,22.50
2018-08-19T13:05:24.910Z,21.50
2018-08-19T13:07:54.291Z,21.30
2018-08-19T13:10:24.262Z,20.80
2018-08-19T13:12:54.879Z,21.30
2018-08-19T13:15:25.876Z,20.90
2018-08-19T13:17:55.742Z,20.80
2018-08-19T13:20:25.276Z,22.10
2018-08-19T13:23:03.778Z,21.20
2018-08-19T13:25:34.492Z,21.90
2018-08-19T13:28:04.051Z,20.80
2018-08-19T13:30:34.387Z,21.00
2018-08-19T13:33:04.683Z,22.20
2018-08-19T13:35:33.947Z,20.10
2018-08-19T13:38:03.292Z,20.30
2018-08-19T13:40:32.584Z,20.30
2018-08-19T13:43:01.897Z,20.80
2018-08-19T13:45:31.504Z,21.50
2018-08-19T13:48:02.011Z,20.70
2018-08-19T13:50:31.559Z,21.10
2018-08-19T13:53:00.863Z,22.90
2018-08-19T13:55:30.055Z,22.80
2018-08-19T13:57:59.714Z,23.00
2018-08-19T14:00:33.380Z,22.10
2018-08-19T14:03:03.035Z,20.90
2018-08-19T14:05:32.300Z,19.60
2018-08-19T14:08:01.649Z,19.60
2018-08-19T14:10:30.955Z,19.80
2018-08-19T14:13:00.173Z,20.50
2018-08-19T14:15:29.465Z,20.40
2018-08-19T14:17:58.859Z,21.60
2018-08-19T14:20:28.064Z,21.10
2018-08-19T14:22:58.309Z,20.00
2018-08-19T14:25:27.555Z,21.10
2018-08-19T14:27:57.287Z,21.20
2018-08-19T14:30:27.675Z,21.00
2018-08-19T14:32:58.044Z,21.90
2018-08-19T14:35:27.263Z,21.40
2018-08-19T14:37:57.519Z,20.80
2018-08-19T14:40:28.343Z,21.20
2018-08-19T14:42:57.648Z,20.60
2018-08-19T14:45:26.903Z,20.70
2018-08-19T14:47:56.212Z,20.50
2018-08-19T14:50:27.688Z,21.20
2018-08-19T14:52:57.453Z,21.40
2018-08-19T14:55:26.874Z,21.90
2018-08-19T14:57:56.192Z,21.40
2018-08-19T15:00:26.467Z,20.20
2018-08-19T15:02:56.950Z,20.90
2018-08-19T15:05:26.142Z,20.90
2018-08-19T15:07:56.478Z,21.30
2018-08-19T15:10:26.103Z,21.70
2018-08-19T15:12:55.429Z,22.40
2018-08-19T15:15:24.775Z,23.10
2018-08-19T15:18:02.507Z,22.80
2018-08-19T15:20:33.162Z,23.10
2018-08-19T15:23:13.859Z,23.40
2018-08-19T15:25:43.842Z,23.60
2018-08-19T15:28:13.278Z,23.40
2018-08-19T15:30:43.199Z,24.00
2018-08-19T15:33:14.111Z,24.00
2018-08-19T15:35:43.774Z,24.50
2018-08-19T15:38:13.649Z,24.60
2018-08-19T15:40:45.959Z,25.10
2018-08-19T15:43:16.239Z,24.80
2018-08-19T15:45:46.770Z,24.50
2018-08-19T15:48:16.273Z,25.40
2018-08-19T15:50:45.899Z,24.90
2018-08-19T15:53:17.437Z,25.40
2018-08-19T15:55:47.012Z,23.70
2018-08-19T15:58:16.262Z,23.10
2018-08-19T16:00:45.651Z,22.30
2018-08-19T16:03:14.955Z,22.30
2018-08-19T16:05:44.223Z,22.40
2018-08-19T16:08:14.035Z,22.50
2018-08-19T16:10:44.327Z,22.80
2018-08-19T16:13:14.884Z,23.50
2018-08-19T16:15:44.099Z,23.40
2018-08-19T16:18:13.332Z,23.00
2018-08-19T16:20:47.993Z,23.60
2018-08-19T16:23:17.995Z,23.30
2018-08-19T16:25:47.507Z,23.20
2018-08-19T16:28:18.723Z,23.10
2018-08-19T16:30:49.195Z,22.90
2018-08-19T16:33:18.794Z,22.80
2018-08-19T16:35:48.627Z,22.80
2018-08-19T16:38:18.019Z,23.40
2018-08-19T16:40:47.818Z,23.90
2018-08-19T16:43:17.157Z,23.30
2018-08-19T16:45:46.520Z,23.00
2018-08-19T16:48:20.214Z,23.20
2018-08-19T16:50:50.298Z,23.60
2018-08-19T16:53:21.783Z,23.50
2018-08-19T16:55:50.991Z,23.90
2018-08-19T16:58:20.363Z,24.10
2018-08-19T17:00:49.614Z,24.50
2018-08-19T17:03:27.513Z,24.80
2018-08-19T17:05:57.443Z,24.90
2018-08-19T17:08:26.643Z,24.40
2018-08-19T17:10:56.232Z,24.70
2018-08-19T17:13:25.438Z,24.60
2018-08-19T17:15:54.730Z,25.00
2018-08-19T17:18:25.215Z,25.30
2018-08-19T17:20:54.439Z,25.50
2018-08-19T17:23:24.599Z,25.80
2018-08-19T17:25:54.067Z,26.40
2018-08-19T17:28:25.139Z,26.80
2018-08-19T17:30:55.136Z,27.10
2018-08-19T17:33:30.076Z,27.10
2018-08-19T17:35:59.336Z,27.60
2018-08-19T17:38:33.723Z,28.30
2018-08-19T17:41:03.425Z,28.60
2018-08-19T17:43:38.160Z,28.90
2018-08-19T17:46:14.227Z,29.10
2018-08-19T17:48:44.315Z,29.20
2018-08-19T17:51:27.214Z,29.30
2018-08-19T17:53:56.431Z,29.60
2018-08-19T17:56:25.953Z,29.80
2018-08-19T17:58:55.551Z,30.00
2018-08-19T18:01:25.279Z,30.10
2018-08-19T18:03:54.656Z,30.50
2018-08-19T18:06:24.097Z,30.60
2018-08-19T18:08:53.899Z,30.80
2018-08-19T18:11:23.195Z,30.50
2018-08-19T18:13:52.397Z,30.90
2018-08-19T18:16:21.936Z,31.20
2018-08-19T18:18:51.197Z,30.90
2018-08-19T18:21:20.406Z,31.70
2018-08-19T18:23:50.303Z,31.40
2018-08-19T18:26:20.598Z,31.20
2018-08-19T18:28:51.111Z,31.50
2018-08-19T18:31:21.775Z,31.30
2018-08-19T18:34:03.347Z,31.80
2018-08-19T18:36:33.789Z,32.00
2018-08-19T18:39:06.879Z,32.10
2018-08-19T18:41:37.671Z,32.30
2018-08-19T18:44:08.269Z,32.30
2018-08-19T18:46:37.764Z,32.40
2018-08-19T18:49:11.124Z,32.50
2018-08-19T18:51:41.878Z,32.10
2018-08-19T18:54:20.051Z,33.20
2018-08-19T18:56:50.895Z,33.10
2018-08-19T18:59:20.612Z,33.60
2018-08-19T19:01:49.820Z,33.20
2018-08-19T19:04:19.212Z,33.00
2018-08-19T19:06:48.643Z,33.80
2018-08-19T19:09:18.095Z,34.20
2018-08-19T19:11:50.340Z,34.10
2018-08-19T19:14:20.538Z,34.50
2018-08-19T19:16:53.814Z,34.40
2018-08-19T19:19:23.060Z,33.60
2018-08-19T19:22:01.500Z,33.80
2018-08-19T19:24:34.898Z,33.40
2018-08-19T19:27:05.973Z,33.50
2018-08-19T19:29:35.183Z,34.20
2018-08-19T19:32:13.697Z,34.70
2018-08-19T19:34:42.884Z,34.80
2018-08-19T19:37:12.599Z,35.20
2018-08-19T19:39:41.863Z,35.40
2018-08-19T19:42:12.431Z,34.80
2018-08-19T19:44:41.606Z,34.80
2018-08-19T19:47:11.232Z,34.50
2018-08-19T19:49:46.828Z,34.60
2018-08-19T19:52:16.205Z,34.90
2018-08-19T19:54:45.395Z,35.40
2018-08-19T19:57:15.883Z,35.40
2018-08-19T19:59:45.098Z,35.30
2018-08-19T20:02:19.459Z,35.10
2018-08-19T20:04:48.875Z,35.00
2018-08-19T20:07:18.875Z,35.10
2018-08-19T20:09:48.044Z,36.10
2018-08-19T20:12:25.735Z,35.90
2018-08-19T20:14:55.363Z,35.50
2018-08-19T20:17:24.607Z,35.60
2018-08-19T20:19:54.286Z,36.00
2018-08-19T20:22:23.539Z,36.10
2018-08-19T20:24:52.770Z,36.10
2018-08-19T20:27:21.996Z,36.30
2018-08-19T20:29:52.875Z,36.30
2018-08-19T20:32:22.110Z,36.30
2018-08-19T20:34:51.523Z,36.80
2018-08-19T20:37:23.155Z,36.80
2018-08-19T20:39:53.023Z,36.80
2018-08-19T20:42:22.420Z,37.10
2018-08-19T20:44:51.652Z,37.00
2018-08-19T20:47:20.925Z,37.60
2018-08-19T20:49:50.583Z,38.40
2018-08-19T20:52:27.240Z,38.30
2018-08-19T20:54:56.507Z,38.70
2018-08-19T20:57:25.720Z,38.80
2018-08-19T20:59:55.348Z,38.40
2018-08-19T21:02:24.539Z,38.50
2018-08-19T21:04:53.716Z,38.70
2018-08-19T21:07:22.932Z,38.80
2018-08-19T21:09:52.129Z,39.30
2018-08-19T21:12:21.316Z,39.80
2018-08-19T21:14:50.590Z,39.70
2018-08-19T21:17:19.702Z,39.70
2018-08-19T21:19:48.876Z,39.90
2018-08-19T21:22:18.479Z,40.00
2018-08-19T21:24:47.659Z,40.30
2018-08-19T21:27:16.837Z,40.50
2018-08-19T21:29:46.113Z,40.60
2018-08-19T21:32:15.235Z,40.70
2018-08-19T21:34:44.419Z,40.60
2018-08-19T21:37:20.796Z,41.10
2018-08-19T21:39:50.271Z,41.30
2018-08-19T21:42:19.459Z,41.20
2018-08-19T21:44:48.979Z,41.50
2018-08-19T21:47:18.163Z,41.70
2018-08-19T21:49:51.827Z,42.00
2018-08-19T21:52:21.275Z,42.30
2018-08-19T21:54:50.475Z,42.60
2018-08-19T21:57:19.751Z,42.60
2018-08-19T21:59:48.931Z,42.60
2018-08-19T22:02:25.443Z,42.60
2018-08-19T22:04:54.607Z,43.40
2018-08-19T22:07:23.791Z,43.50
2018-08-19T22:09:53.320Z,42.90
2018-08-19T22:12:22.501Z,43.50
2018-08-19T22:14:51.683Z,43.50
2018-08-19T22:17:21.519Z,43.90
2018-08-19T22:19:50.790Z,43.60
2018-08-19T22:22:20.180Z,43.90
2018-08-19T22:24:49.406Z,44.10
2018-08-19T22:27:18.659Z,43.60
2018-08-19T22:29:49.951Z,43.80
2018-08-19T22:32:19.156Z,45.10
2018-08-19T22:34:48.333Z,44.00
2018-08-19T22:37:17.776Z,43.60
2018-08-19T22:39:47.509Z,44.30
2018-08-19T22:42:16.682Z,44.50
2018-08-19T22:44:45.888Z,44.50
2018-08-19T22:47:15.091Z,44.70
2018-08-19T22:49:44.267Z,44.50
2018-08-19T22:52:22.683Z,44.30
2018-08-19T22:54:54.963Z,44.50
2018-08-19T22:57:24.247Z,43.90
2018-08-19T22:59:53.536Z,44.20
2018-08-19T23:02:23.203Z,44.10
2018-08-19T23:04:52.419Z,44.10
2018-08-19T23:07:21.603Z,44.80
2018-08-19T23:09:50.791Z,44.70
2018-08-19T23:12:20.405Z,46.80
2018-08-19T23:15:00.839Z,45.60
2018-08-19T23:17:30.043Z,45.10
2018-08-19T23:19:59.219Z,46.90
2018-08-19T23:22:28.391Z,46.30
2018-08-19T23:24:57.612Z,45.70
2018-08-19T23:27:26.815Z,45.50
2018-08-19T23:29:56.007Z,45.30
2018-08-19T23:32:25.470Z,46.70
2018-08-19T23:34:54.656Z,46.40
2018-08-19T23:37:23.842Z,46.40
2018-08-19T23:39:53.624Z,46.10
2018-08-19T23:42:22.819Z,47.30
2018-08-19T23:44:52.017Z,46.80
2018-08-19T23:47:21.235Z,47.10
2018-08-19T23:49:50.415Z,46.80
2018-08-19T23:52:19.610Z,47.10
2018-08-19T23:54:49.135Z,47.00
2018-08-19T23:57:18.504Z,47.40
2018-08-19T23:59:47.691Z,47.70
